Hlavní strana
METAR-TAF:

METAR-TAF

Letiště :

Arvidsjaur, Švédsko

zeměpisná šířka: 65-35-25N, zeměpisná délka: 019-16-55E, výška: 379 m

Aktuální stav počasí

Zpráva byla vytvořena před 20 minutami, v 06:50 UTC
Západojihozápadní vítr 12 kt
Teplota 8°C
Vlhkost vzduchu 61%
Tlak 1016 hPa
Viditelnost 10 km a více

METAR: ESNX 210650Z AUTO 24012KT 9999 OVC100/// 08/01 Q1016

Čas: 09:10 (07:10 UTC)


TAF: chybějící

Stav a předpovědi počasí z více než 4 000 letišť (zprávy METAR a TAF).

Červené a žluté tečky na mapě představují dostupné meteorologické stanice.

Když kurzor umístíte na tečku, zobrazí se název stanice.

Pak kliknutím zobrazíte stav a předpověď počasí.

Chcete-li změnit mapu, kliknutím na zelené tlačítko se znaménkem +mapu přiblížíte, kliknutím na zelené tlačítko se znaménkem – mapu oddálíte a kliknutím na zelené šipky přejdete na sousední mapy.


METAR-TAF: